Airfield :
LOGIN :

Register | Disclaimer

   EN    FR    IT 

 










Legend :    VFR   Marginal VFR   IFR   Intensive IFR   Very Intensive IFR
Visi :
Ceiling :
>= 8 km
>= 3000ft
5 to 8 km
1000 to 3000 ft
1500m to 5 km
500 to 1000 ft
800 to 1500m
200 to 500 ft
< 800m
< 200 ft
Symbols :   Thunderstorms  Fog  Heavy snow  Heavy precipitations  Wind > 20 kt
SIGMETs :     Misc.  Thunderstorms  Icing  Turbulence  Mountain Waves  Volcanic Ashes







- Airport Elevation : 604 ft
- IATA code : LCJ


EPLL - Lodz

CURRENT METAR :
  • 251000Z 22017KT 190V250 CAVOK 21/08 Q1007

EXPIRED METARs :
  • 250930Z 22012KT 190V250 CAVOK 20/08 Q1007
  • 250900Z 22013KT 160V240 CAVOK 20/09 Q1007
  • 250830Z 20011KT 160V230 CAVOK 18/09 Q1008
  • 250800Z 19009G19KT 140V230 CAVOK 17/09 Q1008
  • 250730Z 18006KT 130V230 CAVOK 16/09 Q1009

TAF TAF EPLL
Valid from the 25 at 06:00 until the 26 at 06:00 UTC


250530Z 2506/2606 VRB03KT CAVOK
BECMG 2507/2509 20013KT
TEMPO 2508/2511 21015G32KT
BECMG 2510/2512 26012KT
TEMPO 2511/2518 27017G32KT -SHRA BKN035CB
PROB40
TEMPO 2515/2518 4000 TSRA
TEMPO 2518/2522 27015G30KT
BECMG 2523/2601 20004KT
No reported NOTAMs for that airfield.



MET'MAP, your aeronautical weather chart ! - Copyright ORBIFLY December 2007 - Disclaimer

ORBIFLY MET'MAP TEAM :

Programming & Development : Alexandra Zaïnal
Concept & Development : Baudouin d'Aumeries
Co-Development & Prog : Marc-Olivier Méhu
Technical & hardware support : Manuel Goepfert

Contact : metmap@orbifly.com




SOURCES & CREDITS :

   NOAA